Time;durP1;ratioP1;P1;durP2;ratioP2;P2;SDS_P1;SDS_P2;PMS_P1;PMS_P2;Temp;Humidity;BMP_temperature;BMP_pressure;BME280_temperature;BME280_humidity;BME280_pressure;Samples;Min_cycle;Max_cycle;Signal;HPM_P1;HPM_P2
2024/02/24 00:00:42;;;;;;;1.33;0.80;;;;;;;12.82;48.60;93534.50;5063415;28;20028;-80
2024/02/24 00:03:07;;;;;;;1.73;1.00;;;;;;;12.85;48.71;93539.97;5062815;28;20025;-80
2024/02/24 00:05:32;;;;;;;2.08;1.00;;;;;;;12.96;48.81;93547.53;5063365;28;20052;-80
2024/02/24 00:07:58;;;;;;;2.15;0.90;;;;;;;13.00;48.44;93557.22;5063252;28;20035;-81
2024/02/24 00:10:23;;;;;;;1.70;0.85;;;;;;;13.05;47.88;93570.41;5063154;28;20087;-80
2024/02/24 00:12:49;;;;;;;3.30;0.73;;;;;;;13.11;47.41;93557.56;5062460;28;20024;-81
2024/02/24 00:15:14;;;;;;;2.17;0.98;;;;;;;13.07;47.60;93534.47;5062328;28;20096;-81
2024/02/24 00:17:40;;;;;;;2.53;0.85;;;;;;;13.16;47.61;93569.94;5062008;28;20094;-80
2024/02/24 00:20:07;;;;;;;1.25;0.80;;;;;;;13.14;47.40;93556.88;5063033;28;20092;-81
2024/02/24 00:22:32;;;;;;;1.65;0.80;;;;;;;13.05;47.05;93548.22;5060974;28;20066;-81
2024/02/24 00:24:57;;;;;;;1.40;0.75;;;;;;;13.10;46.80;93544.53;5061302;28;20025;-80
2024/02/24 00:27:23;;;;;;;2.08;0.85;;;;;;;13.10;47.16;93550.66;5062238;28;20025;-78
2024/02/24 00:29:49;;;;;;;1.42;0.73;;;;;;;13.07;46.83;93550.53;5063104;28;20025;-78
2024/02/24 00:32:15;;;;;;;1.33;0.80;;;;;;;13.13;46.77;93549.22;5062044;28;20045;-78
2024/02/24 00:34:41;;;;;;;1.92;1.02;;;;;;;13.18;46.49;93570.38;5062808;28;20070;-78
2024/02/24 00:37:07;;;;;;;1.42;0.80;;;;;;;13.14;46.79;93564.91;5062696;28;20033;-79
2024/02/24 00:39:32;;;;;;;2.13;1.17;;;;;;;13.02;47.64;93581.75;5062735;28;20323;-78
2024/02/24 00:41:57;;;;;;;2.22;0.82;;;;;;;12.91;48.24;93545.09;5062655;28;20021;-79
2024/02/24 00:44:23;;;;;;;3.75;1.30;;;;;;;12.81;48.66;93557.78;5062970;28;20043;-80
2024/02/24 00:46:49;;;;;;;1.70;0.88;;;;;;;12.87;48.25;93538.88;5063051;28;20047;-79
2024/02/24 00:49:14;;;;;;;1.70;0.70;;;;;;;12.88;48.26;93581.31;5061784;28;20341;-79
2024/02/24 00:51:41;;;;;;;2.22;0.93;;;;;;;12.80;48.68;93553.56;5062829;28;20041;-79
2024/02/24 00:54:08;;;;;;;3.70;1.15;;;;;;;12.64;49.25;93534.72;5063983;28;20052;-79
2024/02/24 00:56:34;;;;;;;1.80;0.77;;;;;;;12.73;48.97;93550.66;5066664;28;20025;-79
2024/02/24 00:58:59;;;;;;;1.83;0.80;;;;;;;12.62;48.39;93555.69;5066725;28;20028;-78
2024/02/24 01:01:25;;;;;;;2.20;0.80;;;;;;;12.69;48.44;93549.00;5066357;28;20025;-79
2024/02/24 01:03:50;;;;;;;1.23;0.73;;;;;;;12.67;48.12;93551.22;5066302;28;20032;-78
2024/02/24 01:06:15;;;;;;;1.27;0.63;;;;;;;12.79;47.73;93554.69;5066282;28;20361;-79
2024/02/24 01:08:41;;;;;;;3.15;0.70;;;;;;;12.81;47.45;93562.38;5066132;28;20040;-78
2024/02/24 01:11:07;;;;;;;1.65;0.93;;;;;;;12.82;48.02;93550.53;5066344;28;20060;-79
2024/02/24 01:13:32;;;;;;;1.65;0.82;;;;;;;12.72;48.96;93542.97;5066230;28;20032;-79
2024/02/24 01:15:58;;;;;;;2.53;1.00;;;;;;;12.65;49.17;93541.63;5065971;28;20033;-78
2024/02/24 01:18:23;;;;;;;2.30;0.80;;;;;;;12.69;49.03;93533.72;5066030;28;20032;-78
2024/02/24 01:20:49;;;;;;;2.53;1.30;;;;;;;12.66;49.00;93539.75;5066132;28;20091;-78
2024/02/24 01:23:16;;;;;;;5.47;1.20;;;;;;;12.54;49.66;93548.53;5065689;28;20024;-79
2024/02/24 01:25:44;;;;;;;3.08;1.23;;;;;;;12.51;50.09;93532.38;5065626;28;20040;-80
2024/02/24 01:28:09;;;;;;;2.88;0.98;;;;;;;12.35;50.74;93516.19;5066035;28;20028;-79
2024/02/24 01:30:36;;;;;;;2.15;1.02;;;;;;;12.34;51.12;93536.81;5066136;28;20033;-79
2024/02/24 01:33:02;;;;;;;2.53;1.30;;;;;;;12.12;51.41;93516.59;5065857;28;20016;-79
2024/02/24 01:35:28;;;;;;;3.83;1.15;;;;;;;12.05;51.65;93497.69;5065324;28;20021;-79
2024/02/24 01:37:53;;;;;;;2.63;1.30;;;;;;;11.88;51.49;93553.91;5065965;28;20112;-79
2024/02/24 01:40:18;;;;;;;1.77;0.88;;;;;;;11.96;51.29;93537.03;5065937;28;20024;-80
2024/02/24 01:42:44;;;;;;;2.15;1.00;;;;;;;11.99;50.93;93537.16;5065561;28;20196;-79
2024/02/24 01:45:11;;;;;;;1.95;1.17;;;;;;;12.02;50.67;93541.06;5065922;28;20095;-79
2024/02/24 01:47:37;;;;;;;1.25;0.68;;;;;;;11.92;50.90;93544.91;5065562;28;20017;-79
2024/02/24 01:50:03;;;;;;;2.83;0.95;;;;;;;11.98;50.68;93492.84;5065661;28;20024;-79
2024/02/24 01:52:29;;;;;;;4.28;0.93;;;;;;;11.96;50.53;93529.03;5065486;28;20021;-78
2024/02/24 01:54:58;;;;;;;1.42;0.85;;;;;;;12.08;50.09;93517.59;5065116;28;20036;-79
2024/02/24 01:57:28;;;;;;;2.58;1.27;;;;;;;12.04;50.62;93520.16;5064248;28;20029;-78
2024/02/24 01:59:54;;;;;;;5.55;1.10;;;;;;;12.05;50.14;93519.06;5065154;28;20056;-78
2024/02/24 02:02:21;;;;;;;2.10;0.80;;;;;;;12.09;49.43;93511.94;5065256;28;20088;-78
2024/02/24 02:04:46;;;;;;;1.38;0.77;;;;;;;12.07;49.79;93516.03;5064824;28;20307;-80
2024/02/24 02:07:12;;;;;;;1.88;0.75;;;;;;;12.11;49.42;93493.69;5065403;28;20029;-80
2024/02/24 02:09:57;;;;;;;1.88;0.98;;;;;;;12.12;49.00;93503.25;5065818;28;20074;-80
2024/02/24 02:12:24;;;;;;;1.73;0.68;;;;;;;12.09;48.87;93501.25;5065246;28;20096;-79
2024/02/24 02:14:50;;;;;;;1.83;1.05;;;;;;;12.13;48.94;93486.13;5065479;28;20021;-85
2024/02/24 02:17:15;;;;;;;1.83;0.90;;;;;;;12.21;48.57;93521.84;5065328;28;20017;-79
2024/02/24 02:19:41;;;;;;;1.50;0.80;;;;;;;12.20;47.68;93494.34;5064953;28;20024;-79
2024/02/24 02:22:11;;;;;;;1.88;0.70;;;;;;;12.28;47.69;93487.38;5064672;28;20021;-78
2024/02/24 02:24:37;;;;;;;2.10;0.95;;;;;;;12.28;47.65;93490.03;5065122;28;20033;-78
2024/02/24 02:27:06;;;;;;;3.00;1.45;;;;;;;12.34;47.63;93503.97;5064889;28;20083;-79
2024/02/24 02:29:32;;;;;;;2.33;1.08;;;;;;;12.36;46.89;93515.09;5064754;28;20433;-78
2024/02/24 02:31:57;;;;;;;3.78;1.83;;;;;;;12.30;47.96;93530.56;5064209;28;20065;-78
2024/02/24 02:34:23;;;;;;;10.43;2.42;;;;;;;12.13;48.32;93525.41;5064690;28;20310;-78
2024/02/24 02:36:48;;;;;;;4.43;2.30;;;;;;;12.06;48.99;93531.28;5064828;28;20260;-78
2024/02/24 02:39:14;;;;;;;2.45;1.20;;;;;;;11.94;49.03;93505.31;5064656;28;20088;-79
2024/02/24 02:41:39;;;;;;;2.80;1.75;;;;;;;11.95;49.28;93536.25;5064622;28;20037;-78
2024/02/24 02:44:05;;;;;;;5.63;2.42;;;;;;;11.81;49.85;93549.88;5064087;28;20035;-77
2024/02/24 02:46:30;;;;;;;4.60;2.70;;;;;;;11.57;50.60;93555.88;5064363;28;20024;-78
2024/02/24 02:48:56;;;;;;;5.70;2.63;;;;;;;11.49;50.60;93555.94;5064317;28;20200;-78
2024/02/24 02:51:21;;;;;;;7.18;3.40;;;;;;;11.39;51.25;93555.22;5064256;28;20032;-77
2024/02/24 02:53:46;;;;;;;6.85;2.97;;;;;;;11.29;51.34;93563.59;5064161;28;20377;-77
2024/02/24 02:56:13;;;;;;;7.45;3.75;;;;;;;11.21;52.20;93537.75;5063861;28;20099;-77
2024/02/24 02:58:38;;;;;;;6.43;3.67;;;;;;;11.19;52.60;93508.78;5064067;28;20058;-77
2024/02/24 03:01:03;;;;;;;5.57;2.20;;;;;;;11.10;51.99;93536.59;5064202;28;20044;-77
2024/02/24 03:03:29;;;;;;;3.80;2.28;;;;;;;10.94;52.13;93515.03;5064147;28;20371;-78
2024/02/24 03:05:54;;;;;;;7.05;2.88;;;;;;;11.02;52.51;93533.66;5064186;28;20012;-77
2024/02/24 03:08:19;;;;;;;1.70;0.90;;;;;;;10.93;51.70;93519.59;5064174;28;20021;-77
2024/02/24 03:10:45;;;;;;;8.15;2.75;;;;;;;10.97;52.57;93546.38;5064125;28;20024;-78
2024/02/24 03:13:10;;;;;;;6.40;3.00;;;;;;;10.97;52.90;93539.19;5063960;28;20048;-78
2024/02/24 03:15:36;;;;;;;8.50;3.15;;;;;;;10.97;53.06;93541.03;5063483;28;20028;-78
2024/02/24 03:18:02;;;;;;;5.85;3.03;;;;;;;10.92;53.40;93555.34;5063096;28;20028;-78
2024/02/24 03:20:27;;;;;;;5.47;2.97;;;;;;;10.90;53.81;93554.91;5063779;28;20032;-78
2024/02/24 03:22:52;;;;;;;5.32;2.40;;;;;;;10.75;53.41;93539.47;5064092;28;20059;-78
2024/02/24 03:25:18;;;;;;;9.40;3.08;;;;;;;10.77;53.85;93563.91;5064133;28;20036;-78
2024/02/24 03:27:44;;;;;;;5.43;3.58;;;;;;;10.79;53.94;93569.72;5063828;28;20028;-78
2024/02/24 03:30:10;;;;;;;14.70;3.60;;;;;;;10.70;54.10;93579.63;5063459;28;20439;-78
2024/02/24 03:32:35;;;;;;;7.43;3.50;;;;;;;10.59;54.28;93563.97;5063527;28;20024;-77
2024/02/24 03:35:00;;;;;;;9.90;3.63;;;;;;;10.44;54.29;93577.81;5063552;28;20070;-78
2024/02/24 03:37:26;;;;;;;5.82;3.65;;;;;;;10.32;54.65;93596.34;5063774;28;20032;-78
2024/02/24 03:39:52;;;;;;;5.90;3.30;;;;;;;10.26;54.90;93598.38;5063680;28;20025;-79
2024/02/24 03:42:17;;;;;;;6.00;3.30;;;;;;;10.19;55.13;93590.06;5063864;28;20025;-79
2024/02/24 03:44:42;;;;;;;6.25;3.33;;;;;;;10.18;55.13;93578.66;5063463;28;20935;-79
2024/02/24 03:47:08;;;;;;;5.95;3.45;;;;;;;10.16;55.46;93599.50;5063665;28;20300;-79
2024/02/24 03:49:33;;;;;;;7.47;4.28;;;;;;;9.89;55.94;93605.16;5063604;28;20028;-79
2024/02/24 03:51:59;;;;;;;7.47;4.00;;;;;;;9.48;57.64;93607.19;5063724;28;20033;-80
2024/02/24 03:54:24;;;;;;;9.43;4.28;;;;;;;9.63;57.26;93609.38;5063143;28;20374;-79
2024/02/24 03:56:50;;;;;;;8.52;4.78;;;;;;;9.71;57.25;93615.00;5063511;28;20035;-79
2024/02/24 03:59:16;;;;;;;9.70;3.78;;;;;;;9.67;57.26;93622.06;5063232;28;20266;-79
2024/02/24 04:01:41;;;;;;;6.57;2.83;;;;;;;9.70;56.71;93619.56;5063212;28;20021;-79
2024/02/24 04:04:06;;;;;;;5.80;3.42;;;;;;;9.76;56.70;93618.31;5063462;28;20086;-79
2024/02/24 04:06:32;;;;;;;7.10;3.60;;;;;;;9.72;57.21;93616.59;5063423;28;20059;-79
2024/02/24 04:08:57;;;;;;;6.63;3.63;;;;;;;9.74;56.90;93607.19;5063227;28;20187;-78
2024/02/24 04:11:23;;;;;;;7.63;3.75;;;;;;;9.28;58.38;93600.59;5063458;28;20037;-78
2024/02/24 04:13:48;;;;;;;13.55;4.85;;;;;;;9.41;58.12;93610.31;5063305;28;20106;-79
2024/02/24 04:16:13;;;;;;;6.47;3.83;;;;;;;9.44;57.99;93623.00;5062428;28;20033;-79
2024/02/24 04:18:39;;;;;;;6.25;3.45;;;;;;;9.29;58.78;93623.44;5062134;28;20052;-79
2024/02/24 04:21:04;;;;;;;9.52;4.18;;;;;;;9.32;58.54;93628.16;5062057;28;20028;-78
2024/02/24 04:23:30;;;;;;;6.90;3.17;;;;;;;9.19;58.19;93607.78;5062438;28;20028;-79
2024/02/24 04:25:55;;;;;;;3.65;2.08;;;;;;;9.38;56.45;93623.44;5063027;28;20193;-79
2024/02/24 04:28:21;;;;;;;4.63;2.65;;;;;;;9.56;56.90;93640.22;5064687;28;20088;-78
2024/02/24 04:30:47;;;;;;;3.70;2.10;;;;;;;9.63;56.25;93617.38;5067390;28;20028;-78
2024/02/24 04:33:12;;;;;;;4.60;2.47;;;;;;;9.73;56.42;93615.47;5067123;28;20083;-78
2024/02/24 04:35:38;;;;;;;6.90;3.05;;;;;;;9.78;55.88;93629.44;5067030;28;20327;-78
2024/02/24 04:38:06;;;;;;;6.15;2.95;;;;;;;9.78;55.85;93620.66;5066656;28;20131;-78
2024/02/24 04:40:35;;;;;;;5.07;2.63;;;;;;;9.77;55.71;93625.22;5066682;28;20080;-78
2024/02/24 04:43:01;;;;;;;7.68;3.78;;;;;;;9.71;56.66;93631.78;5066664;28;20087;-78
2024/02/24 04:45:26;;;;;;;6.88;3.72;;;;;;;9.78;56.84;93632.09;5066441;28;20017;-79
2024/02/24 04:47:52;;;;;;;6.30;3.88;;;;;;;9.81;56.77;93634.13;5066694;28;20043;-79
2024/02/24 04:50:17;;;;;;;6.45;3.78;;;;;;;9.75;56.90;93631.91;5066483;28;20031;-78
2024/02/24 04:52:43;;;;;;;7.32;3.70;;;;;;;9.74;57.09;93647.13;5066617;28;20029;-79
2024/02/24 04:55:08;;;;;;;6.97;3.15;;;;;;;9.77;57.12;93651.81;5066166;28;20033;-79
2024/02/24 04:57:34;;;;;;;12.43;4.28;;;;;;;9.70;56.73;93656.81;5066601;28;20021;-80
2024/02/24 04:59:59;;;;;;;8.40;3.53;;;;;;;9.68;56.76;93637.72;5066392;28;20025;-79
2024/02/24 05:02:24;;;;;;;4.70;2.67;;;;;;;9.52;56.77;93633.94;5066211;28;20031;-78
2024/02/24 05:04:52;;;;;;;10.90;3.53;;;;;;;9.57;57.23;93650.56;5066445;28;20020;-79
2024/02/24 05:07:17;;;;;;;9.30;3.63;;;;;;;9.59;57.07;93660.88;5066370;28;20032;-79
2024/02/24 05:09:42;;;;;;;7.35;3.80;;;;;;;9.59;56.76;93666.22;5066394;28;20021;-79
2024/02/24 05:12:08;;;;;;;8.02;3.03;;;;;;;9.64;56.47;93668.72;5064864;28;20435;-78
2024/02/24 05:14:33;;;;;;;8.35;2.47;;;;;;;9.71;56.38;93671.72;5065678;28;20057;-78
2024/02/24 05:16:58;;;;;;;5.65;3.42;;;;;;;9.73;56.30;93682.81;5065967;28;20088;-79
2024/02/24 05:19:24;;;;;;;10.18;3.95;;;;;;;9.55;56.48;93694.53;5065990;28;20025;-79
2024/02/24 05:21:49;;;;;;;7.03;2.80;;;;;;;9.68;56.64;93682.97;5065964;28;20056;-79
2024/02/24 05:24:16;;;;;;;13.25;3.30;;;;;;;9.77;56.61;93673.13;5065989;28;20104;-79
2024/02/24 05:26:42;;;;;;;6.68;3.28;;;;;;;9.80;56.01;93677.81;5065870;28;20084;-78
2024/02/24 05:29:07;;;;;;;6.18;3.00;;;;;;;9.80;55.70;93675.16;5065436;28;20025;-79
2024/02/24 05:31:33;;;;;;;4.78;2.38;;;;;;;9.87;55.58;93687.19;5065973;28;20312;-79
2024/02/24 05:33:58;;;;;;;7.03;2.15;;;;;;;10.02;54.44;93694.75;5065539;28;20025;-79
2024/02/24 05:36:24;;;;;;;8.48;2.72;;;;;;;10.06;54.27;93726.84;5065737;28;20035;-78
2024/02/24 05:38:49;;;;;;;9.20;4.07;;;;;;;9.94;54.81;93714.16;5065387;28;20230;-79
2024/02/24 05:41:14;;;;;;;8.63;3.38;;;;;;;9.72;55.89;93721.16;5065055;28;20393;-79
2024/02/24 05:43:40;;;;;;;7.35;3.40;;;;;;;9.64;56.36;93724.59;5065280;28;20041;-78
2024/02/24 05:46:08;;;;;;;8.60;3.45;;;;;;;9.55;57.19;93739.75;5065510;28;20016;-78
2024/02/24 05:48:36;;;;;;;9.02;3.75;;;;;;;9.50;57.51;93714.06;5065683;28;20017;-79
2024/02/24 05:51:04;;;;;;;10.98;3.35;;;;;;;9.53;57.37;93728.66;5065293;28;20020;-79
2024/02/24 05:53:29;;;;;;;15.35;3.90;;;;;;;9.59;57.47;93740.72;5065273;28;20099;-79
2024/02/24 05:55:54;;;;;;;9.90;2.60;;;;;;;9.65;57.13;93736.81;5064959;28;20208;-79
2024/02/24 05:58:21;;;;;;;9.45;3.15;;;;;;;9.69;56.09;93735.09;5065513;28;20096;-80
2024/02/24 06:00:47;;;;;;;16.90;4.90;;;;;;;9.74;56.03;93734.94;5065367;28;20255;-78
2024/02/24 06:03:12;;;;;;;7.22;3.75;;;;;;;9.80;56.07;93736.38;5065306;28;20020;-78
2024/02/24 06:05:38;;;;;;;8.38;3.42;;;;;;;9.81;56.16;93748.59;5065071;28;20044;-78
2024/02/24 06:08:05;;;;;;;5.88;2.95;;;;;;;9.91;55.73;93744.06;5065218;28;20045;-78
2024/02/24 06:10:30;;;;;;;9.57;3.58;;;;;;;9.67;56.64;93747.94;5064986;28;20028;-78
2024/02/24 06:12:56;;;;;;;9.48;3.60;;;;;;;9.77;56.57;93758.28;5097201;28;20033;-77
2024/02/24 06:15:21;;;;;;;8.23;3.28;;;;;;;9.83;56.78;93754.38;5064578;28;20048;-78
2024/02/24 06:17:47;;;;;;;6.38;3.40;;;;;;;9.90;56.04;93755.81;5064922;28;20024;-79
2024/02/24 06:20:12;;;;;;;10.95;4.53;;;;;;;9.93;56.62;93755.97;5064694;28;20395;-78
2024/02/24 06:22:38;;;;;;;20.27;3.97;;;;;;;9.92;56.49;93748.28;5063380;28;20058;-78
2024/02/24 06:25:04;;;;;;;9.18;4.18;;;;;;;9.93;56.62;93765.81;5064681;28;20027;-79
2024/02/24 06:27:31;;;;;;;9.82;3.45;;;;;;;9.86;56.71;93755.63;5064410;28;20033;-78
2024/02/24 06:29:57;;;;;;;7.30;3.97;;;;;;;9.58;58.06;93766.53;5064710;28;20097;-79
2024/02/24 06:32:22;;;;;;;14.35;4.25;;;;;;;9.43;58.60;93743.00;5064367;28;20036;-79
2024/02/24 06:34:48;;;;;;;9.98;4.07;;;;;;;9.54;58.87;93738.97;5064540;28;20029;-79
2024/02/24 06:37:13;;;;;;;9.13;4.45;;;;;;;9.50;58.90;93742.56;5064628;28;20319;-79
2024/02/24 06:39:39;;;;;;;10.77;3.88;;;;;;;9.64;58.84;93764.50;5064307;28;20031;-78
2024/02/24 06:42:04;;;;;;;13.15;4.13;;;;;;;9.76;58.33;93764.69;5062924;28;20216;-79
2024/02/24 06:44:29;;;;;;;11.70;3.33;;;;;;;9.92;57.23;93765.03;5063922;28;20051;-78
2024/02/24 06:46:55;;;;;;;10.20;3.28;;;;;;;10.11;57.01;93754.09;5063049;28;20071;-79
2024/02/24 06:49:20;;;;;;;13.00;4.03;;;;;;;10.32;56.21;93703.69;5064218;28;20035;-78
2024/02/24 06:51:46;;;;;;;19.08;3.75;;;;;;;10.42;54.62;93723.88;5062994;28;20029;-78
2024/02/24 06:54:11;;;;;;;9.93;3.83;;;;;;;10.55;54.83;93738.94;5063890;28;20116;-78
2024/02/24 06:56:36;;;;;;;14.18;3.35;;;;;;;10.71;54.36;93722.47;5063661;28;20201;-78
2024/02/24 06:59:05;;;;;;;5.28;2.25;;;;;;;10.90;52.23;93738.88;5064107;28;20047;-77
2024/02/24 07:01:34;;;;;;;3.45;1.63;;;;;;;11.17;49.85;93731.59;5063925;28;20282;-79
2024/02/24 07:04:00;;;;;;;3.47;1.63;;;;;;;11.48;49.22;93733.97;5063021;28;20039;-79
2024/02/24 07:06:25;;;;;;;7.00;2.28;;;;;;;11.64;48.73;93731.53;5063927;28;20016;-79
2024/02/24 07:08:51;;;;;;;6.75;2.30;;;;;;;11.74;48.64;93739.16;5063861;28;20020;-79
2024/02/24 07:11:16;;;;;;;8.35;2.13;;;;;;;11.86;48.12;93730.47;5064008;28;20025;-79
2024/02/24 07:13:41;;;;;;;8.27;2.47;;;;;;;11.95;47.70;93731.25;5063873;28;20028;-78
2024/02/24 07:16:11;;;;;;;4.80;2.22;;;;;;;12.08;47.95;93742.00;5063591;28;20091;-78
2024/02/24 07:18:37;;;;;;;7.85;2.65;;;;;;;12.14;48.00;93717.44;5062663;28;20108;-79
2024/02/24 07:21:03;;;;;;;7.43;3.15;;;;;;;12.16;48.44;93727.78;5064266;28;20035;-82
2024/02/24 07:23:29;;;;;;;9.63;3.90;;;;;;;12.34;48.92;93744.50;5063624;28;20025;-80
2024/02/24 07:25:54;;;;;;;9.27;3.78;;;;;;;12.43;49.18;93737.16;5062659;28;20020;-81
2024/02/24 07:28:20;;;;;;;7.50;3.50;;;;;;;12.51;48.65;93747.00;5063734;28;20025;-78
2024/02/24 07:30:45;;;;;;;8.48;4.15;;;;;;;12.58;48.35;93749.16;5063263;28;20042;-77
2024/02/24 07:33:11;;;;;;;7.47;3.58;;;;;;;12.60;48.16;93747.72;5063290;28;20028;-78
2024/02/24 07:35:37;;;;;;;9.23;4.28;;;;;;;12.67;60.14;93747.19;5062595;28;20215;-66
2024/02/24 07:38:02;;;;;;;10.00;4.03;;;;;;;12.84;50.04;93754.25;5060936;28;20039;-73
2024/02/24 07:40:28;;;;;;;9.43;3.90;;;;;;;12.76;49.33;93771.16;5062719;28;20061;-70
2024/02/24 07:42:56;;;;;;;12.90;4.18;;;;;;;12.81;48.42;93770.97;5061449;28;20033;-71
2024/02/24 07:45:22;;;;;;;12.63;3.92;;;;;;;12.85;48.36;93766.53;5061693;28;20058;-71
2024/02/24 07:47:48;;;;;;;9.63;4.40;;;;;;;12.99;48.35;93764.34;5062058;28;20246;-71
2024/02/24 07:50:14;;;;;;;9.93;3.90;;;;;;;12.98;47.44;93778.81;5062484;28;20055;-71
2024/02/24 07:52:39;;;;;;;6.75;3.28;;;;;;;13.05;46.86;93784.44;5062286;28;20319;-71
2024/02/24 07:55:06;;;;;;;7.45;3.85;;;;;;;12.89;46.77;93769.34;5060829;28;20335;-72
2024/02/24 07:57:31;;;;;;;13.15;4.10;;;;;;;12.93;47.00;93781.72;5062287;28;20049;-72
2024/02/24 07:59:56;;;;;;;9.55;3.58;;;;;;;12.92;47.06;93774.03;5061512;28;20031;-68
2024/02/24 08:02:22;;;;;;;10.02;4.50;;;;;;;12.97;47.54;93797.91;5062080;28;20373;-82
2024/02/24 08:04:47;;;;;;;7.65;3.30;;;;;;;13.17;46.48;93770.31;5063812;28;20024;-79
2024/02/24 08:07:12;;;;;;;8.13;1.77;;;;;;;13.39;44.13;93765.69;5063148;28;20291;-80
2024/02/24 08:09:38;;;;;;;6.97;2.22;;;;;;;13.40;44.11;93768.03;5062853;28;20090;-79
2024/02/24 08:12:03;;;;;;;9.98;2.75;;;;;;;13.57;44.45;93772.41;5062984;28;20327;-79
2024/02/24 08:14:29;;;;;;;12.30;2.85;;;;;;;13.68;43.26;93763.94;5062912;28;20066;-81
2024/02/24 08:16:54;;;;;;;6.75;2.13;;;;;;;13.80;43.28;93786.16;5062683;28;20032;-81
2024/02/24 08:19:20;;;;;;;7.75;2.38;;;;;;;14.00;42.98;93773.78;5063032;28;20075;-81
2024/02/24 08:21:45;;;;;;;3.35;1.90;;;;;;;14.17;42.71;93772.75;5062666;28;20096;-83
2024/02/24 08:24:16;;;;;;;4.45;2.20;;;;;;;14.34;41.41;93782.41;5062728;28;20028;-80
2024/02/24 08:26:43;;;;;;;3.80;1.80;;;;;;;14.49;40.91;93789.00;5062712;28;20092;-80
2024/02/24 08:29:11;;;;;;;7.57;2.45;;;;;;;14.71;40.45;93809.19;5062578;28;20280;-81
2024/02/24 08:31:38;;;;;;;6.20;1.60;;;;;;;14.88;39.65;93791.22;5062334;28;20036;-79
2024/02/24 08:34:03;;;;;;;8.20;1.40;;;;;;;14.83;39.69;93776.16;5062576;28;20029;-78
2024/02/24 08:36:29;;;;;;;9.25;2.30;;;;;;;14.87;39.95;93765.53;5062424;28;20028;-81
2024/02/24 08:38:56;;;;;;;4.80;1.80;;;;;;;14.90;39.99;93770.22;5062412;28;20037;-78
2024/02/24 08:41:22;;;;;;;5.35;2.38;;;;;;;15.00;40.06;93765.16;5062638;28;20251;-79
2024/02/24 08:43:47;;;;;;;11.52;3.75;;;;;;;15.19;40.97;93780.59;5062467;28;20037;-80
2024/02/24 08:46:12;;;;;;;10.70;3.63;;;;;;;15.32;40.22;93786.66;5061311;28;20031;-80
2024/02/24 08:48:38;;;;;;;7.18;2.97;;;;;;;15.40;40.96;93785.72;5062321;28;20021;-80
2024/02/24 08:51:03;;;;;;;11.75;2.60;;;;;;;15.51;40.50;93798.66;5062620;28;20051;-80
2024/02/24 08:53:29;;;;;;;7.60;1.88;;;;;;;15.64;40.10;93781.34;5062512;28;20028;-79
2024/02/24 08:55:54;;;;;;;10.30;3.22;;;;;;;15.83;40.37;93777.97;5062332;28;20048;-79
2024/02/24 08:58:20;;;;;;;3.00;1.70;;;;;;;15.81;37.95;93796.34;5062452;28;20056;-80
2024/02/24 09:00:45;;;;;;;3.67;1.55;;;;;;;15.38;37.96;93773.78;5062428;28;20228;-80
2024/02/24 09:03:10;;;;;;;3.08;1.40;;;;;;;15.00;38.72;93769.72;5062448;28;20013;-80
2024/02/24 09:05:36;;;;;;;4.10;1.52;;;;;;;15.10;39.20;93774.63;5062044;28;20017;-79
2024/02/24 09:08:01;;;;;;;2.05;1.02;;;;;;;14.98;38.84;93774.63;5062272;28;20029;-79
2024/02/24 09:10:26;;;;;;;6.60;1.40;;;;;;;15.01;38.98;93774.75;5062320;28;20119;-80
2024/02/24 09:12:52;;;;;;;4.75;1.50;;;;;;;15.09;38.85;93788.38;5062433;28;20059;-79
2024/02/24 09:15:17;;;;;;;3.97;1.48;;;;;;;15.22;39.26;93797.91;5064007;28;20092;-80
2024/02/24 09:17:43;;;;;;;3.60;1.00;;;;;;;15.38;39.16;93768.41;5065833;28;20206;-80
2024/02/24 09:20:09;;;;;;;5.93;1.55;;;;;;;15.50;38.86;93775.59;5065784;28;20017;-80
2024/02/24 09:22:35;;;;;;;4.47;1.10;;;;;;;15.70;37.05;93761.13;5065765;28;20025;-81
2024/02/24 09:25:01;;;;;;;2.85;1.00;;;;;;;15.78;37.36;93767.50;5065670;28;20039;-78
2024/02/24 09:27:26;;;;;;;6.03;1.60;;;;;;;15.98;37.46;93768.34;5065371;28;20056;-78
2024/02/24 09:29:52;;;;;;;2.35;1.20;;;;;;;16.07;37.58;93792.34;5065249;28;20330;-77
2024/02/24 09:32:17;;;;;;;2.50;0.98;;;;;;;16.30;36.81;93792.47;5065260;28;20029;-77
2024/02/24 09:34:44;;;;;;;2.50;0.82;;;;;;;16.44;35.63;93796.28;5065281;28;20033;-76
2024/02/24 09:37:10;;;;;;;3.20;1.10;;;;;;;16.33;35.90;93778.34;5065506;28;20323;-76
2024/02/24 09:39:40;;;;;;;2.92;1.15;;;;;;;16.14;36.50;93771.78;5065219;28;20024;-76
2024/02/24 09:42:09;;;;;;;14.18;1.45;;;;;;;15.94;35.87;93805.91;5064996;28;20050;-77
2024/02/24 09:44:35;;;;;;;5.50;1.00;;;;;;;16.01;36.57;93783.78;5064660;28;20029;-77
2024/02/24 09:47:02;;;;;;;2.53;1.15;;;;;;;16.09;36.22;93806.22;5064821;28;20028;-76
2024/02/24 09:49:30;;;;;;;3.80;1.05;;;;;;;16.15;36.74;93789.47;5064823;28;20028;-75
2024/02/24 09:51:55;;;;;;;1.70;1.02;;;;;;;16.22;36.08;93808.47;5064878;28;20052;-76
2024/02/24 09:54:21;;;;;;;3.17;1.00;;;;;;;15.84;36.38;93784.91;5064585;28;20044;-77
2024/02/24 09:56:51;;;;;;;3.00;1.20;;;;;;;16.01;36.75;93789.91;5064580;28;20035;-76
2024/02/24 09:59:18;;;;;;;3.70;1.75;;;;;;;16.24;35.73;93776.63;5064702;28;20335;-79
2024/02/24 10:01:47;;;;;;;3.30;1.40;;;;;;;16.28;36.36;93808.19;5064491;28;20029;-77
2024/02/24 10:04:14;;;;;;;4.65;1.00;;;;;;;16.47;35.12;93810.94;5064257;28;20059;-76
2024/02/24 10:06:41;;;;;;;5.80;1.13;;;;;;;16.56;35.29;93792.66;5064180;28;20309;-76
2024/02/24 10:09:07;;;;;;;2.72;1.17;;;;;;;16.30;35.56;93795.94;5062167;28;20033;-76
2024/02/24 10:11:35;;;;;;;4.13;1.38;;;;;;;16.32;35.94;93804.44;5062875;28;20023;-76
2024/02/24 10:14:01;;;;;;;4.05;1.35;;;;;;;16.44;35.68;93793.59;5062982;28;20315;-77
2024/02/24 10:16:26;;;;;;;4.40;0.85;;;;;;;16.45;35.18;93776.31;5062767;28;20029;-76
2024/02/24 10:18:52;;;;;;;1.52;0.85;;;;;;;16.52;35.53;93774.91;5063495;28;20113;-76
2024/02/24 10:21:17;;;;;;;5.43;1.58;;;;;;;16.74;36.12;93771.50;5063250;28;20311;-76
2024/02/24 10:23:43;;;;;;;2.78;1.70;;;;;;;16.96;35.91;93775.44;5063900;28;20013;-77
2024/02/24 10:26:08;;;;;;;16.98;1.75;;;;;;;17.15;35.28;93768.47;5063654;28;20016;-77
2024/02/24 10:28:35;;;;;;;2.38;1.10;;;;;;;17.14;34.49;93778.50;5063176;28;20021;-76
2024/02/24 10:31:01;;;;;;;2.90;1.10;;;;;;;16.86;34.99;93772.56;5064254;28;20020;-76
2024/02/24 10:33:29;;;;;;;2.85;1.00;;;;;;;16.82;35.53;93789.41;5064334;28;20251;-77
2024/02/24 10:35:55;;;;;;;1.55;0.93;;;;;;;16.81;35.22;93770.91;5064336;28;20025;-77
2024/02/24 10:38:21;;;;;;;6.13;1.45;;;;;;;16.80;35.47;93780.88;5064180;28;20017;-77
2024/02/24 10:40:47;;;;;;;3.72;1.20;;;;;;;16.91;35.78;93780.31;5064141;28;20071;-77
2024/02/24 10:43:14;;;;;;;3.95;1.23;;;;;;;17.00;35.14;93773.59;5064236;28;20216;-77
2024/02/24 10:45:40;;;;;;;2.05;1.00;;;;;;;17.10;35.21;93772.25;5064127;28;20092;-78
2024/02/24 10:48:06;;;;;;;3.30;1.13;;;;;;;17.13;34.92;93768.06;5064048;28;20016;-77
2024/02/24 10:50:32;;;;;;;2.50;1.00;;;;;;;16.98;34.66;93753.56;5063959;28;20211;-76
2024/02/24 10:53:00;;;;;;;5.47;1.02;;;;;;;17.11;33.91;93749.56;5063915;28;20017;-77
2024/02/24 10:55:28;;;;;;;2.13;1.02;;;;;;;16.91;34.66;93737.25;5062455;28;20044;-77
2024/02/24 10:57:54;;;;;;;5.43;1.20;;;;;;;16.95;35.08;93757.72;5063853;28;20025;-77
2024/02/24 11:00:29;;;;;;;3.67;1.13;;;;;;;17.11;34.47;93748.78;5064021;28;20028;-77
2024/02/24 11:02:57;;;;;;;2.13;1.00;;;;;;;17.23;34.24;93760.16;5063886;28;20029;-77
2024/02/24 11:05:23;;;;;;;5.30;1.40;;;;;;;17.10;35.37;93784.94;5062642;28;20215;-77
2024/02/24 11:07:49;;;;;;;1.92;0.82;;;;;;;17.14;33.78;93772.31;5062699;28;20024;-77
2024/02/24 11:10:21;;;;;;;2.55;1.20;;;;;;;17.00;35.25;93797.06;5063380;28;20032;-77
2024/02/24 11:12:50;;;;;;;2.47;1.00;;;;;;;16.98;35.99;93772.41;5063746;28;20029;-77
2024/02/24 11:15:23;;;;;;;2.70;1.20;;;;;;;16.99;35.72;93752.41;5063827;28;20269;-77
2024/02/24 11:17:53;;;;;;;3.70;1.48;;;;;;;17.16;36.13;93780.81;5063693;28;20025;-77
2024/02/24 11:20:34;;;;;;;4.57;1.25;;;;;;;17.17;35.69;93774.28;5063578;28;20030;-77
2024/02/24 11:23:25;;;;;;;2.97;1.20;;;;;;;16.93;36.03;93772.69;5063430;28;20037;-77
2024/02/24 11:26:08;;;;;;;5.97;1.17;;;;;;;17.02;35.88;93749.03;5063299;28;20350;-77
2024/02/24 11:28:35;;;;;;;2.25;1.17;;;;;;;17.08;35.62;93763.75;5063510;28;20043;-77